Time;durP1;ratioP1;P1;durP2;ratioP2;P2;SDS_P1;SDS_P2;PMS_P1;PMS_P2;Temp;Humidity;BMP_temperature;BMP_pressure;BME280_temperature;BME280_humidity;BME280_pressure;Samples;Min_cycle;Max_cycle;Signal;HPM_P1;HPM_P2
2023/05/23 00:01:36;;;;;;;5.43;4.30;;;20.60;56.70;;;;;;5074359;28;20484;-52
2023/05/23 00:04:03;;;;;;;8.33;4.53;;;20.60;56.80;;;;;;5074305;28;20522;-52
2023/05/23 00:06:31;;;;;;;6.17;4.90;;;20.60;56.90;;;;;;5074185;28;20436;-52
2023/05/23 00:08:58;;;;;;;6.57;4.40;;;20.60;57.00;;;;;;5073951;28;20433;-52
2023/05/23 00:11:26;;;;;;;6.30;4.10;;;20.50;57.00;;;;;;5073821;28;20452;-52
2023/05/23 00:13:52;;;;;;;6.73;4.30;;;20.20;56.80;;;;;;5074054;28;20981;-52
2023/05/23 00:16:20;;;;;;;4.63;4.23;;;20.20;56.80;;;;;;5074226;28;20486;-53
2023/05/23 00:18:47;;;;;;;5.30;4.07;;;20.50;57.00;;;;;;5073609;28;20840;-52
2023/05/23 00:21:13;;;;;;;4.90;4.40;;;20.30;56.90;;;;;;5073758;28;20463;-52
2023/05/23 00:23:42;;;;;;;5.47;4.57;;;20.60;57.20;;;;;;5073849;28;20953;-52
2023/05/23 00:26:08;;;;;;;6.17;4.40;;;20.50;57.10;;;;;;5073785;28;20462;-52
2023/05/23 00:28:37;;;;;;;9.97;4.77;;;20.40;57.10;;;;;;5073452;28;20427;-52
2023/05/23 00:31:04;;;;;;;5.70;4.53;;;20.70;57.40;;;;;;5073577;28;20452;-52
2023/05/23 00:33:32;;;;;;;6.37;5.07;;;20.40;57.20;;;;;;5073773;28;20444;-52
2023/05/23 00:35:58;;;;;;;6.87;4.83;;;20.60;57.40;;;;;;5055527;28;20508;-52
2023/05/23 00:38:25;;;;;;;5.53;5.03;;;20.50;57.40;;;;;;5073231;28;20512;-53
2023/05/23 00:40:53;;;;;;;4.80;4.10;;;20.40;57.50;;;;;;5055395;28;20463;-53
2023/05/23 00:43:21;;;;;;;6.20;4.50;;;20.40;57.60;;;;;;5073027;28;20470;-53
2023/05/23 00:45:48;;;;;;;7.07;4.90;;;20.10;57.50;;;;;;5072824;28;20439;-53
2023/05/23 00:48:15;;;;;;;6.33;4.40;;;20.40;57.80;;;;;;5073084;28;20424;-53
2023/05/23 00:50:42;;;;;;;5.93;4.30;;;20.20;57.70;;;;;;5073180;28;20563;-53
2023/05/23 00:53:09;;;;;;;7.90;4.70;;;20.00;57.70;;;;;;5072996;28;20530;-53
2023/05/23 00:55:36;;;;;;;6.23;4.27;;;20.20;57.90;;;;;;5073214;28;20833;-53
2023/05/23 00:58:05;;;;;;;5.37;4.33;;;20.40;58.70;;;;;;5055203;28;20454;-53
2023/05/23 01:00:34;;;;;;;7.27;4.73;;;19.70;57.70;;;;;;5072925;28;20458;-53
2023/05/23 01:03:01;;;;;;;6.33;4.47;;;20.10;58.20;;;;;;5055165;28;20447;-53
2023/05/23 01:05:28;;;;;;;6.80;4.20;;;19.90;58.10;;;;;;5073088;28;20477;-53
2023/05/23 01:07:55;;;;;;;8.20;4.57;;;20.30;58.50;;;;;;5055121;28;20479;-53
2023/05/23 01:10:25;;;;;;;10.10;5.70;;;20.00;58.60;;;;;;5054627;28;20542;-53
2023/05/23 01:13:06;;;;;;;5.93;4.37;;;20.00;58.70;;;;;;5055052;28;20447;-54
2023/05/23 01:15:41;;;;;;;6.00;4.53;;;19.70;58.60;;;;;;5054883;28;20870;-53
2023/05/23 01:18:14;;;;;;;7.50;4.70;;;19.70;58.70;;;;;;5072435;28;20407;-53
2023/05/23 01:20:44;;;;;;;5.13;4.63;;;20.10;59.20;;;;;;5072704;28;20455;-54
2023/05/23 01:23:29;;;;;;;7.53;4.37;;;19.90;59.00;;;;;;5054791;28;20457;-54
2023/05/23 01:26:08;;;;;;;9.10;4.70;;;20.10;59.30;;;;;;5072688;28;20450;-53
2023/05/23 01:28:43;;;;;;;6.13;5.23;;;19.90;59.20;;;;;;5054518;28;20442;-54
2023/05/23 01:31:11;;;;;;;7.63;4.73;;;19.90;59.20;;;;;;5072657;28;20450;-53
2023/05/23 01:33:39;;;;;;;4.60;4.20;;;19.90;59.30;;;;;;5054594;28;20452;-53
2023/05/23 01:36:07;;;;;;;4.67;4.27;;;19.60;59.10;;;;;;5072455;28;20474;-53
2023/05/23 01:38:34;;;;;;;9.40;5.40;;;19.90;59.40;;;;;;5072135;28;20438;-53
2023/05/23 01:41:01;;;;;;;6.27;4.67;;;20.10;59.50;;;;;;5072368;28;20490;-53
2023/05/23 01:43:27;;;;;;;8.87;6.27;;;20.10;59.70;;;;;;5072508;28;20821;-53
2023/05/23 01:45:57;;;;;;;8.20;4.20;;;19.80;59.50;;;;;;5072561;28;20439;-53
2023/05/23 01:48:25;;;;;;;10.67;5.10;;;19.80;59.50;;;;;;5053958;28;20973;-53
2023/05/23 01:50:53;;;;;;;6.37;4.47;;;20.10;59.80;;;;;;5072142;28;20945;-53
2023/05/23 01:53:22;;;;;;;5.20;4.70;;;20.10;59.80;;;;;;5072070;28;20435;-53
2023/05/23 01:55:49;;;;;;;6.03;5.03;;;19.50;59.40;;;;;;5053830;28;20479;-53
2023/05/23 01:58:15;;;;;;;8.73;5.23;;;20.00;59.90;;;;;;5071976;28;20434;-53
2023/05/23 02:00:42;;;;;;;6.23;5.57;;;19.60;59.60;;;;;;5054117;28;20476;-53
2023/05/23 02:03:11;;;;;;;7.00;4.97;;;19.80;59.90;;;;;;5054151;28;20822;-53
2023/05/23 02:05:37;;;;;;;8.23;5.83;;;19.80;60.00;;;;;;5054277;28;20447;-53
2023/05/23 02:08:04;;;;;;;5.60;4.60;;;19.80;60.10;;;;;;5053877;28;20443;-53
2023/05/23 02:10:31;;;;;;;5.30;4.40;;;19.50;59.90;;;;;;5053874;28;20467;-53
2023/05/23 02:13:00;;;;;;;7.00;5.57;;;19.60;60.10;;;;;;5054179;28;20438;-53
2023/05/23 02:15:28;;;;;;;9.27;5.00;;;19.30;59.90;;;;;;5071982;28;20517;-53
2023/05/23 02:17:54;;;;;;;9.47;5.40;;;19.50;60.30;;;;;;5053922;28;20448;-53
2023/05/23 02:20:22;;;;;;;9.60;5.47;;;19.70;60.60;;;;;;5053490;28;20474;-53
2023/05/23 02:22:49;;;;;;;7.17;5.57;;;18.90;60.00;;;;;;5071768;28;20433;-53
2023/05/23 02:25:15;;;;;;;6.87;4.70;;;19.80;61.00;;;;;;5053869;28;20866;-53
2023/05/23 02:27:42;;;;;;;8.77;5.33;;;19.70;60.90;;;;;;5053953;28;20435;-54
2023/05/23 02:30:10;;;;;;;5.43;4.93;;;19.70;60.90;;;;;;5053537;28;20470;-53
2023/05/23 02:32:36;;;;;;;7.97;5.20;;;19.60;60.80;;;;;;5053899;28;20446;-53
2023/05/23 02:35:04;;;;;;;6.50;5.03;;;19.20;60.40;;;;;;5053645;28;20467;-53
2023/05/23 02:37:32;;;;;;;10.53;5.87;;;19.60;61.00;;;;;;5053583;28;20478;-53
2023/05/23 02:39:59;;;;;;;6.27;5.30;;;19.60;61.00;;;;;;5053542;28;20469;-53
2023/05/23 02:42:25;;;;;;;10.47;5.43;;;19.60;61.20;;;;;;5071663;28;20436;-53
2023/05/23 02:44:52;;;;;;;7.87;5.73;;;19.80;61.60;;;;;;5053812;28;20454;-53
2023/05/23 02:47:18;;;;;;;9.30;5.70;;;19.90;61.80;;;;;;5053635;28;20455;-53
2023/05/23 02:49:45;;;;;;;8.00;5.87;;;19.20;60.90;;;;;;5070892;28;20457;-53
2023/05/23 02:52:12;;;;;;;11.10;5.47;;;19.60;61.40;;;;;;5053556;28;20748;-53
2023/05/23 02:54:40;;;;;;;6.80;5.00;;;19.20;61.00;;;;;;5071509;28;20438;-53
2023/05/23 02:57:06;;;;;;;11.30;5.40;;;19.50;61.60;;;;;;5053440;28;20486;-53
2023/05/23 02:59:36;;;;;;;19.53;6.60;;;19.70;62.00;;;;;;5053461;28;20513;-53
2023/05/23 03:02:04;;;;;;;9.10;6.10;;;19.60;62.80;;;;;;5071362;28;20739;-53
2023/05/23 03:04:30;;;;;;;9.23;6.57;;;19.40;62.00;;;;;;5071685;28;20443;-53
2023/05/23 03:06:58;;;;;;;7.77;5.27;;;19.60;62.30;;;;;;5053549;28;20455;-53
2023/05/23 03:09:25;;;;;;;6.23;5.27;;;19.40;62.10;;;;;;5056899;28;20453;-53
2023/05/23 03:11:53;;;;;;;7.20;5.33;;;19.40;63.20;;;;;;5057214;28;20454;-53
2023/05/23 03:14:20;;;;;;;6.30;5.70;;;19.00;62.00;;;;;;5057293;28;20651;-53
2023/05/23 03:16:48;;;;;;;9.40;7.10;;;19.40;62.60;;;;;;5057222;28;20572;-53
2023/05/23 03:19:15;;;;;;;9.73;6.30;;;19.30;62.60;;;;;;5056879;28;20446;-53
2023/05/23 03:21:43;;;;;;;9.23;5.40;;;19.10;62.60;;;;;;5056960;28;20449;-53
2023/05/23 03:24:09;;;;;;;6.53;5.30;;;19.20;62.80;;;;;;5057088;28;20440;-54
2023/05/23 03:26:36;;;;;;;9.00;5.90;;;18.90;62.30;;;;;;5057095;28;20546;-53
2023/05/23 03:29:04;;;;;;;8.13;5.27;;;19.30;62.80;;;;;;5056605;28;20424;-53
2023/05/23 03:31:31;;;;;;;7.23;5.47;;;19.10;62.70;;;;;;5074737;28;20922;-53
2023/05/23 03:33:57;;;;;;;11.10;6.07;;;19.00;62.50;;;;;;5074733;28;20983;-53
2023/05/23 03:36:27;;;;;;;7.53;5.80;;;19.40;63.00;;;;;;5056719;28;20469;-53
2023/05/23 03:38:54;;;;;;;7.50;6.80;;;19.40;63.00;;;;;;5056508;28;21006;-53
2023/05/23 03:41:20;;;;;;;10.07;6.93;;;19.00;62.50;;;;;;5056578;28;20469;-53
2023/05/23 03:43:47;;;;;;;9.60;5.67;;;19.30;63.10;;;;;;5056398;28;20484;-53
2023/05/23 03:46:15;;;;;;;8.70;6.03;;;19.10;62.90;;;;;;5074591;28;20437;-53
2023/05/23 03:48:42;;;;;;;15.90;6.13;;;19.50;63.50;;;;;;5056263;28;20810;-54
2023/05/23 03:51:09;;;;;;;8.90;5.63;;;19.60;63.60;;;;;;5074266;28;20503;-54
2023/05/23 03:53:35;;;;;;;6.83;6.13;;;19.50;63.30;;;;;;5056601;28;20467;-54
2023/05/23 03:56:02;;;;;;;8.60;6.10;;;19.30;63.10;;;;;;5074224;28;20517;-53
2023/05/23 03:58:29;;;;;;;8.70;5.90;;;19.40;63.20;;;;;;5055831;28;20449;-53
2023/05/23 04:01:01;;;;;;;9.03;6.70;;;19.00;62.90;;;;;;5056155;28;20469;-53
2023/05/23 04:03:32;;;;;;;8.47;5.47;;;19.30;63.30;;;;;;5056272;28;20552;-53
2023/05/23 04:05:59;;;;;;;7.47;6.17;;;19.30;63.40;;;;;;5056087;28;20849;-53
2023/05/23 04:08:26;;;;;;;9.10;6.27;;;19.90;64.20;;;;;;5055846;28;20511;-53
2023/05/23 04:10:53;;;;;;;6.80;5.87;;;19.40;63.60;;;;;;5056088;28;20444;-53
2023/05/23 04:13:22;;;;;;;8.30;5.93;;;19.00;63.20;;;;;;5055984;28;20511;-53
2023/05/23 04:15:48;;;;;;;11.63;6.57;;;19.20;63.70;;;;;;5055822;28;20475;-53
2023/05/23 04:18:16;;;;;;;11.33;7.17;;;19.60;64.30;;;;;;5055413;28;20473;-53
2023/05/23 04:20:44;;;;;;;8.43;5.97;;;19.30;64.30;;;;;;5055877;28;20989;-53
2023/05/23 04:23:11;;;;;;;13.07;6.07;;;19.30;64.60;;;;;;5055808;28;20457;-53
2023/05/23 04:25:40;;;;;;;12.07;6.67;;;19.30;64.80;;;;;;5055603;28;20496;-53
2023/05/23 04:28:29;;;;;;;9.43;6.30;;;19.50;65.20;;;;;;5055475;28;20456;-53
2023/05/23 04:30:57;;;;;;;7.70;5.73;;;19.30;65.30;;;;;;5073635;28;20854;-53
2023/05/23 04:33:27;;;;;;;8.97;6.77;;;19.00;65.20;;;;;;5055716;28;20478;-53
2023/05/23 04:35:56;;;;;;;12.40;6.33;;;19.20;65.40;;;;;;5055512;28;20442;-53
2023/05/23 04:38:24;;;;;;;6.77;6.07;;;19.30;65.50;;;;;;5054950;28;20993;-53
2023/05/23 04:40:51;;;;;;;7.27;5.77;;;19.20;65.40;;;;;;5055438;28;20454;-53
2023/05/23 04:43:57;;;;;;;7.03;6.00;;;19.10;65.60;;;;;;4991930;28;20446;-52
2023/05/23 04:46:31;;;;;;;11.80;6.87;;;19.40;66.10;;;;;;4975475;28;20524;-53
2023/05/23 04:49:13;;;;;;;7.83;5.63;;;19.10;65.60;;;;;;5024487;28;20473;-52
2023/05/23 04:51:41;;;;;;;7.50;5.50;;;19.50;66.30;;;;;;5055052;28;20469;-53
2023/05/23 04:54:28;;;;;;;13.80;7.07;;;19.80;66.60;;;;;;5055671;28;20469;-53
2023/05/23 04:56:56;;;;;;;8.63;6.80;;;19.50;66.30;;;;;;5054998;28;20452;-53
2023/05/23 04:59:24;;;;;;;10.73;7.37;;;19.60;66.50;;;;;;5054495;28;20914;-53
2023/05/23 05:01:51;;;;;;;8.73;7.03;;;19.10;65.90;;;;;;5055124;28;20459;-53
2023/05/23 05:04:18;;;;;;;7.80;6.60;;;19.50;66.40;;;;;;5054969;28;20950;-52
2023/05/23 05:06:47;;;;;;;9.13;6.97;;;19.30;65.90;;;;;;5054729;28;20545;-53
2023/05/23 05:09:14;;;;;;;8.80;6.80;;;19.50;65.90;;;;;;5072358;28;20434;-53
2023/05/23 05:11:43;;;;;;;12.40;7.70;;;19.40;65.80;;;;;;5054825;28;20959;-52
2023/05/23 05:14:09;;;;;;;12.77;6.37;;;19.80;66.30;;;;;;5054830;28;20458;-52
2023/05/23 05:16:36;;;;;;;10.13;7.27;;;19.50;65.80;;;;;;5054778;28;20535;-53
2023/05/23 05:19:03;;;;;;;8.10;6.27;;;19.10;65.30;;;;;;5054346;28;20453;-53
2023/05/23 05:21:31;;;;;;;10.90;6.93;;;19.40;65.70;;;;;;5054587;28;20477;-52
2023/05/23 05:23:59;;;;;;;15.23;8.00;;;19.40;65.80;;;;;;5054466;28;20450;-52
2023/05/23 05:26:26;;;;;;;10.40;6.80;;;19.40;65.90;;;;;;5054390;28;20445;-52
2023/05/23 05:28:54;;;;;;;7.63;6.83;;;19.40;65.90;;;;;;5053850;28;20512;-53
2023/05/23 05:31:21;;;;;;;11.13;7.23;;;19.30;66.00;;;;;;5053404;28;20473;-52
2023/05/23 05:33:48;;;;;;;8.73;7.80;;;19.00;65.50;;;;;;5053826;28;20454;-53
2023/05/23 05:36:16;;;;;;;15.50;6.60;;;19.30;65.90;;;;;;5054257;28;20500;-53
2023/05/23 05:38:43;;;;;;;9.87;6.80;;;19.40;66.10;;;;;;5053763;28;21047;-54
2023/05/23 05:41:11;;;;;;;19.00;8.17;;;19.80;66.70;;;;;;5054114;28;20473;-53
2023/05/23 05:43:47;;;;;;;9.43;6.83;;;19.50;66.50;;;;;;5053871;28;20567;-56
2023/05/23 05:46:14;;;;;;;8.63;6.73;;;19.50;66.80;;;;;;5053720;28;20504;-53
2023/05/23 05:48:41;;;;;;;11.93;7.40;;;19.20;66.90;;;;;;5053157;28;20913;-53
2023/05/23 05:51:11;;;;;;;10.23;6.30;;;19.40;67.30;;;;;;5054456;28;20480;-52
2023/05/23 05:53:38;;;;;;;13.97;7.20;;;19.50;67.30;;;;;;5053970;28;20497;-53
2023/05/23 05:56:07;;;;;;;6.83;5.97;;;19.50;67.30;;;;;;5053519;28;20451;-54
2023/05/23 05:58:36;;;;;;;11.13;6.13;;;18.90;66.60;;;;;;5052920;28;20481;-53
2023/05/23 06:01:06;;;;;;;9.83;6.87;;;19.20;67.10;;;;;;5053189;28;20491;-52
2023/05/23 06:03:33;;;;;;;9.33;6.70;;;19.30;67.30;;;;;;5053262;28;20455;-51
2023/05/23 06:06:00;;;;;;;16.87;8.03;;;19.30;67.80;;;;;;5071550;28;20433;-52
2023/05/23 06:08:26;;;;;;;8.23;6.83;;;19.40;68.00;;;;;;5053412;28;20445;-51
2023/05/23 06:10:53;;;;;;;8.17;6.17;;;19.10;68.00;;;;;;5071469;28;20452;-54
2023/05/23 06:13:20;;;;;;;10.93;7.87;;;19.30;68.50;;;;;;5053320;28;20456;-52
2023/05/23 06:15:52;;;;;;;12.10;8.00;;;19.20;68.60;;;;;;5054045;28;20446;-53
2023/05/23 06:18:19;;;;;;;12.23;7.80;;;19.50;69.30;;;;;;5052833;28;20504;-54
2023/05/23 06:20:46;;;;;;;12.50;8.00;;;20.00;70.20;;;;;;5053201;28;20512;-52
2023/05/23 06:23:16;;;;;;;9.43;6.93;;;19.60;69.90;;;;;;5052955;28;20452;-55
2023/05/23 06:25:42;;;;;;;9.80;8.20;;;19.50;70.00;;;;;;5053342;28;20442;-53
2023/05/23 06:28:09;;;;;;;9.77;7.43;;;19.50;69.80;;;;;;5070661;28;20434;-52
2023/05/23 06:30:37;;;;;;;9.70;8.13;;;19.70;70.10;;;;;;5071220;28;20479;-52
2023/05/23 06:33:05;;;;;;;11.70;8.43;;;19.50;69.70;;;;;;5053582;28;20462;-51
2023/05/23 06:35:31;;;;;;;11.63;7.30;;;19.80;70.10;;;;;;5071164;28;20494;-52
2023/05/23 06:38:01;;;;;;;9.83;7.70;;;19.50;69.60;;;;;;5053318;28;20487;-51
2023/05/23 06:40:27;;;;;;;21.90;7.53;;;19.60;69.80;;;;;;5053302;28;20466;-52
2023/05/23 06:42:54;;;;;;;9.60;7.17;;;19.30;70.40;;;;;;5056553;28;20476;-53
2023/05/23 06:45:40;;;;;;;11.67;6.87;;;19.80;70.30;;;;;;5075391;28;20507;-51
2023/05/23 06:48:08;;;;;;;21.97;8.80;;;19.80;70.30;;;;;;5056401;28;20507;-52
2023/05/23 06:50:36;;;;;;;23.80;8.27;;;19.70;70.30;;;;;;5057036;28;20481;-53
2023/05/23 06:53:03;;;;;;;11.70;7.03;;;19.70;70.00;;;;;;5056930;28;20461;-52
2023/05/23 06:55:32;;;;;;;9.93;7.33;;;19.70;69.90;;;;;;5056519;28;20449;-51
2023/05/23 06:58:02;;;;;;;12.10;7.40;;;19.70;69.80;;;;;;5056998;28;20530;-52
2023/05/23 07:00:29;;;;;;;9.60;7.70;;;19.80;70.00;;;;;;5056726;28;20797;-52
2023/05/23 07:03:08;;;;;;;14.80;7.83;;;19.80;69.80;;;;;;5056919;28;20485;-52
2023/05/23 07:05:35;;;;;;;19.77;8.30;;;20.10;70.00;;;;;;5056910;28;20583;-52
2023/05/23 07:08:02;;;;;;;11.20;7.80;;;20.30;69.70;;;;;;5056942;28;20440;-51
2023/05/23 07:10:29;;;;;;;14.13;7.53;;;20.40;69.30;;;;;;5056611;28;20463;-52
2023/05/23 07:13:04;;;;;;;11.73;8.10;;;20.20;68.10;;;;;;5056984;28;20477;-52
2023/05/23 07:15:31;;;;;;;9.70;7.60;;;20.90;66.70;;;;;;5056980;28;20566;-52
2023/05/23 07:18:12;;;;;;;12.30;8.20;;;20.90;67.50;;;;;;5056414;28;20475;-53
2023/05/23 07:20:39;;;;;;;26.87;8.03;;;20.90;67.00;;;;;;5056708;28;20495;-52
2023/05/23 07:23:12;;;;;;;35.97;10.07;;;21.20;67.00;;;;;;5056594;28;20463;-52
2023/05/23 07:25:41;;;;;;;16.27;8.85;;;22.30;68.30;;;;;;5055016;28;20548;-52
2023/05/23 07:28:11;;;;;;;16.40;7.80;;;21.80;66.60;;;;;;5056003;28;20257;-59
2023/05/23 07:30:38;;;;;;;15.63;8.30;;;21.80;66.10;;;;;;5055971;28;20481;-52
2023/05/23 07:33:05;;;;;;;19.60;7.50;;;21.70;65.50;;;;;;5055846;28;20456;-52
2023/05/23 07:35:34;;;;;;;13.20;7.30;;;21.90;65.60;;;;;;5056359;28;20511;-53
2023/05/23 07:38:03;;;;;;;13.53;8.73;;;22.00;65.30;;;;;;5056172;28;20480;-53
2023/05/23 07:40:30;;;;;;;14.30;7.93;;;22.10;65.00;;;;;;5055842;28;20893;-51
2023/05/23 07:42:58;;;;;;;16.83;8.67;;;22.20;64.30;;;;;;5074010;28;20465;-51
2023/05/23 07:45:25;;;;;;;12.60;6.60;;;22.30;63.50;;;;;;5055745;28;20453;-52
2023/05/23 07:47:52;;;;;;;6.73;5.80;;;22.40;62.90;;;;;;5055772;28;21015;-54
2023/05/23 07:50:20;;;;;;;16.57;8.53;;;22.90;63.00;;;;;;5055208;28;20912;-52
2023/05/23 07:52:51;;;;;;;12.93;7.30;;;21.70;61.70;;;;;;5055437;28;20447;-52
2023/05/23 07:55:23;;;;;;;9.13;6.30;;;22.20;61.80;;;;;;5055945;28;20458;-53
2023/05/23 07:57:51;;;;;;;9.07;6.50;;;22.60;62.10;;;;;;5055950;28;20529;-52
2023/05/23 08:00:19;;;;;;;27.15;7.55;;;22.60;62.70;;;;;;5055574;28;20449;-52
2023/05/23 08:02:51;;;;;;;9.73;6.23;;;22.70;61.80;;;;;;5055657;28;20340;-52
2023/05/23 08:05:25;;;;;;;10.97;7.60;;;22.70;61.90;;;;;;5052263;28;20461;-51
2023/05/23 08:07:56;;;;;;;9.20;7.40;;;22.70;62.00;;;;;;5035904;28;20531;-52
2023/05/23 08:10:22;;;;;;;13.40;7.07;;;22.70;62.00;;;;;;5052249;28;20514;-51
2023/05/23 08:12:49;;;;;;;14.33;8.40;;;22.70;62.30;;;;;;5067306;28;20973;-51
2023/05/23 08:15:18;;;;;;;8.47;6.13;;;22.80;62.20;;;;;;5075653;28;20450;-52
2023/05/23 08:17:50;;;;;;;14.50;7.93;;;22.60;61.90;;;;;;5064789;28;20567;-52
2023/05/23 08:20:17;;;;;;;10.10;7.00;;;22.70;62.00;;;;;;5055292;28;20532;-50
2023/05/23 08:22:45;;;;;;;9.43;6.50;;;22.90;62.40;;;;;;5055717;28;20451;-52
2023/05/23 08:25:13;;;;;;;20.20;7.70;;;22.80;62.20;;;;;;5055535;28;20571;-52
2023/05/23 08:27:40;;;;;;;10.63;6.80;;;22.70;62.40;;;;;;5051940;28;20984;-52
2023/05/23 08:30:24;;;;;;;9.80;6.40;;;22.60;62.70;;;;;;5052975;28;20576;-53
2023/05/23 08:32:51;;;;;;;8.17;6.87;;;22.50;63.10;;;;;;5064329;28;20553;-53
2023/05/23 08:35:18;;;;;;;11.27;6.67;;;22.00;63.10;;;;;;5074957;28;20438;-52
2023/05/23 08:37:45;;;;;;;14.67;6.60;;;22.20;63.80;;;;;;5064519;28;20465;-52
2023/05/23 08:40:19;;;;;;;9.70;7.27;;;22.10;64.30;;;;;;5058850;28;20832;-52
2023/05/23 08:42:50;;;;;;;11.17;6.70;;;22.10;64.80;;;;;;5063445;28;20499;-53
2023/05/23 08:45:17;;;;;;;14.50;7.63;;;22.10;65.20;;;;;;5064757;28;20982;-51
2023/05/23 08:47:45;;;;;;;8.73;6.80;;;22.10;65.60;;;;;;5075107;28;20456;-52
2023/05/23 08:50:14;;;;;;;38.53;8.60;;;22.20;66.00;;;;;;5058462;28;20490;-51
2023/05/23 08:52:47;;;;;;;20.80;8.60;;;22.30;66.30;;;;;;5054840;28;20451;-53
2023/05/23 08:55:17;;;;;;;8.47;7.13;;;22.40;66.40;;;;;;5054894;28;20481;-52
2023/05/23 08:57:44;;;;;;;15.47;7.30;;;22.40;66.40;;;;;;5061889;28;20454;-52
2023/05/23 09:00:30;;;;;;;14.07;7.53;;;22.50;66.80;;;;;;5074208;28;20491;-52
2023/05/23 09:02:57;;;;;;;12.00;7.20;;;22.50;66.80;;;;;;5074567;28;20452;-51
2023/05/23 09:05:41;;;;;;;9.40;6.50;;;22.70;67.00;;;;;;5073661;28;20445;-51
2023/05/23 09:08:09;;;;;;;10.63;6.70;;;22.90;67.30;;;;;;5073857;28;20851;-52
2023/05/23 09:10:38;;;;;;;14.53;6.83;;;23.00;67.30;;;;;;5074537;28;20475;-51
2023/05/23 09:13:06;;;;;;;13.13;7.40;;;22.90;67.60;;;;;;5074430;28;20426;-51
2023/05/23 09:15:33;;;;;;;16.27;6.77;;;22.80;67.70;;;;;;5060825;28;20474;-51
2023/05/23 09:18:02;;;;;;;12.70;6.87;;;22.50;67.70;;;;;;5054294;28;20826;-52
2023/05/23 09:20:29;;;;;;;11.23;8.03;;;23.00;69.00;;;;;;5053976;28;20475;-51
2023/05/23 09:22:59;;;;;;;11.77;9.37;;;22.50;68.40;;;;;;5054268;28;20454;-51
2023/05/23 09:25:26;;;;;;;7.93;7.17;;;22.90;69.10;;;;;;5054063;28;20830;-50
2023/05/23 09:27:58;;;;;;;9.63;6.67;;;23.10;69.70;;;;;;5054143;28;20491;-51
2023/05/23 09:30:25;;;;;;;10.50;7.10;;;23.00;69.70;;;;;;5053720;28;20494;-51
2023/05/23 09:32:59;;;;;;;15.07;7.90;;;23.50;70.30;;;;;;5053911;28;20901;-52
2023/05/23 09:35:28;;;;;;;10.03;7.00;;;23.70;70.30;;;;;;5053999;28;20547;-53
2023/05/23 09:37:58;;;;;;;8.50;7.33;;;23.80;70.10;;;;;;5071868;28;20460;-51
2023/05/23 09:40:30;;;;;;;11.80;7.17;;;24.00;70.40;;;;;;5054307;28;20599;-51
2023/05/23 09:43:06;;;;;;;10.53;6.97;;;23.80;70.10;;;;;;5053907;28;20452;-51
2023/05/23 09:45:33;;;;;;;15.00;7.67;;;24.10;70.40;;;;;;5053805;28;20470;-52
2023/05/23 09:48:01;;;;;;;9.27;8.00;;;23.90;70.90;;;;;;5072369;28;20469;-51
2023/05/23 09:50:32;;;;;;;13.07;8.30;;;23.90;71.10;;;;;;5033577;28;20969;-51
2023/05/23 09:53:00;;;;;;;11.93;7.37;;;23.90;71.30;;;;;;5051762;28;20852;-49
2023/05/23 09:55:26;;;;;;;8.47;7.63;;;23.80;71.70;;;;;;5051616;28;20429;-51
2023/05/23 09:57:55;;;;;;;8.13;7.03;;;23.70;72.30;;;;;;5051524;28;20433;-51
2023/05/23 10:00:24;;;;;;;13.70;8.47;;;23.70;73.10;;;;;;5050920;28;20461;-51
2023/05/23 10:02:58;;;;;;;8.50;7.00;;;23.50;73.70;;;;;;5051763;28;20487;-51
2023/05/23 10:05:35;;;;;;;20.23;8.37;;;23.60;74.20;;;;;;5051916;28;20444;-50
2023/05/23 10:08:06;;;;;;;9.00;6.83;;;23.60;74.30;;;;;;5051421;28;20499;-50
2023/05/23 10:10:35;;;;;;;16.60;8.20;;;23.60;74.50;;;;;;5051526;28;20487;-52
2023/05/23 10:13:04;;;;;;;12.07;8.17;;;23.70;75.00;;;;;;5033642;28;20539;-51
2023/05/23 10:15:38;;;;;;;8.67;7.87;;;23.70;75.10;;;;;;5051342;28;20438;-52
2023/05/23 10:18:10;;;;;;;16.10;7.90;;;23.70;75.00;;;;;;5050724;28;20441;-51
2023/05/23 10:20:40;;;;;;;18.47;7.57;;;23.50;74.70;;;;;;5051444;28;20458;-50
2023/05/23 10:23:06;;;;;;;23.10;7.77;;;24.10;75.30;;;;;;5051350;28;20445;-51
2023/05/23 10:25:35;;;;;;;7.63;6.80;;;23.50;74.80;;;;;;5050868;28;20509;-52
2023/05/23 10:28:03;;;;;;;17.73;6.80;;;23.60;74.60;;;;;;5051238;28;20435;-52
2023/05/23 10:30:30;;;;;;;7.23;6.53;;;23.60;74.10;;;;;;5049997;28;20457;-53
2023/05/23 10:33:17;;;;;;;8.73;6.47;;;23.70;73.00;;;;;;5051404;28;20880;-52
2023/05/23 10:35:53;;;;;;;8.03;7.33;;;23.80;72.40;;;;;;5051290;28;20434;-52
2023/05/23 10:38:36;;;;;;;8.93;7.83;;;23.70;73.20;;;;;;5050685;28;20855;-51
2023/05/23 10:41:10;;;;;;;10.63;7.43;;;23.30;74.00;;;;;;5051391;28;20450;-51
2023/05/23 10:43:44;;;;;;;7.77;7.00;;;23.50;74.30;;;;;;5051204;28;20965;-52
2023/05/23 10:46:13;;;;;;;15.57;8.20;;;23.70;75.00;;;;;;5051341;28;20429;-52
2023/05/23 10:48:43;;;;;;;9.23;7.90;;;23.80;75.40;;;;;;5050674;28;20440;-52
2023/05/23 10:51:11;;;;;;;16.53;8.70;;;23.90;75.90;;;;;;5051236;28;20552;-53
2023/05/23 10:53:39;;;;;;;14.27;8.93;;;23.90;76.40;;;;;;5051065;28;20440;-53
2023/05/23 10:56:07;;;;;;;13.23;10.60;;;23.90;77.00;;;;;;5051309;28;20434;-53
2023/05/23 10:58:35;;;;;;;14.23;9.87;;;24.00;77.50;;;;;;5051136;28;20890;-52
2023/05/23 11:01:05;;;;;;;13.53;12.13;;;24.20;78.50;;;;;;5051184;28;20504;-52
2023/05/23 11:03:36;;;;;;;13.83;12.13;;;24.20;79.10;;;;;;5050739;28;20446;-51
2023/05/23 11:06:05;;;;;;;16.80;11.80;;;24.30;79.50;;;;;;5050935;28;20466;-52
2023/05/23 11:08:41;;;;;;;14.57;13.03;;;24.30;80.40;;;;;;5050248;28;20438;-52
2023/05/23 11:11:08;;;;;;;13.30;12.10;;;24.30;80.90;;;;;;5050710;28;20531;-51
2023/05/23 11:13:55;;;;;;;16.87;12.97;;;24.10;81.30;;;;;;5050751;28;20841;-51
2023/05/23 11:16:25;;;;;;;17.97;12.60;;;24.30;81.80;;;;;;5050566;28;20434;-51
2023/05/23 11:18:52;;;;;;;13.60;12.40;;;24.30;81.60;;;;;;5050473;28;20498;-50
2023/05/23 11:21:21;;;;;;;14.93;13.53;;;24.40;81.80;;;;;;5050420;28;20462;-53
2023/05/23 11:23:54;;;;;;;14.20;13.00;;;24.30;81.80;;;;;;5050725;28;20468;-50
2023/05/23 11:26:31;;;;;;;12.63;11.43;;;24.40;81.70;;;;;;5050442;28;20480;-51
2023/05/23 11:28:58;;;;;;;15.30;14.00;;;24.50;81.70;;;;;;5052313;28;20519;-51
2023/05/23 11:31:26;;;;;;;16.40;14.33;;;24.40;81.40;;;;;;5054570;28;20458;-51
2023/05/23 11:33:53;;;;;;;18.97;14.77;;;24.50;81.40;;;;;;5054509;28;20476;-51
2023/05/23 11:36:24;;;;;;;15.73;14.20;;;24.40;81.20;;;;;;5036685;28;20703;-52
2023/05/23 11:38:52;;;;;;;16.53;14.93;;;24.40;81.50;;;;;;5054140;28;20470;-52
2023/05/23 11:41:19;;;;;;;16.13;14.70;;;24.30;81.30;;;;;;5054238;28;20431;-52
2023/05/23 11:43:52;;;;;;;20.53;18.27;;;24.30;81.50;;;;;;5054270;28;20438;-53
2023/05/23 11:46:19;;;;;;;21.70;17.20;;;24.30;81.70;;;;;;5053918;28;20431;-52
2023/05/23 11:48:46;;;;;;;18.83;17.03;;;24.90;82.20;;;;;;5065422;28;20482;-52
2023/05/23 11:51:13;;;;;;;18.80;16.90;;;24.50;81.60;;;;;;5095085;28;20543;-50
2023/05/23 11:53:43;;;;;;;17.67;15.10;;;24.60;81.30;;;;;;5094375;28;20532;-51
2023/05/23 11:56:10;;;;;;;17.73;15.93;;;24.60;81.30;;;;;;5093969;28;20473;-52
2023/05/23 11:58:39;;;;;;;18.70;16.93;;;24.60;81.30;;;;;;5075437;28;20547;-51
2023/05/23 12:01:08;;;;;;;19.83;17.90;;;24.60;81.10;;;;;;5075780;28;20465;-51
2023/05/23 12:03:37;;;;;;;21.30;19.13;;;24.50;81.20;;;;;;5093749;28;20429;-51
2023/05/23 12:06:04;;;;;;;19.90;18.00;;;24.40;81.70;;;;;;5075646;28;20480;-50
2023/05/23 12:08:31;;;;;;;20.00;18.07;;;24.40;81.70;;;;;;5093563;28;20444;-50
2023/05/23 12:11:00;;;;;;;20.37;18.13;;;24.50;82.10;;;;;;5093930;28;20543;-51
2023/05/23 12:13:29;;;;;;;19.80;17.73;;;24.50;81.90;;;;;;5094207;28;20440;-51
2023/05/23 12:15:57;;;;;;;22.73;19.07;;;24.60;81.70;;;;;;5093914;28;20942;-52
2023/05/23 12:18:24;;;;;;;18.57;16.73;;;24.60;81.60;;;;;;5093247;28;20435;-52
2023/05/23 12:20:51;;;;;;;19.83;17.93;;;24.70;81.20;;;;;;5094023;28;20489;-51
2023/05/23 12:23:19;;;;;;;18.30;16.40;;;24.70;81.10;;;;;;5093727;28;20516;-51
2023/05/23 12:25:50;;;;;;;21.93;17.63;;;24.70;81.30;;;;;;5093804;28;20433;-51
2023/05/23 12:28:19;;;;;;;21.70;19.67;;;24.70;81.90;;;;;;5093345;28;20516;-51
2023/05/23 12:30:47;;;;;;;21.10;19.10;;;24.70;80.90;;;;;;5075463;28;20523;-52
2023/05/23 12:33:14;;;;;;;18.97;17.03;;;24.70;81.20;;;;;;5093527;28;20433;-51
2023/05/23 12:35:43;;;;;;;19.63;17.73;;;24.70;81.20;;;;;;5093558;28;20445;-51
2023/05/23 12:38:15;;;;;;;18.67;16.93;;;24.70;81.30;;;;;;5074921;28;20914;-53
2023/05/23 12:40:41;;;;;;;19.60;17.80;;;24.60;81.30;;;;;;5092912;28;20491;-51
2023/05/23 12:43:09;;;;;;;18.30;16.57;;;24.70;81.20;;;;;;5093381;28;20445;-51
2023/05/23 12:45:38;;;;;;;19.60;17.70;;;24.70;81.00;;;;;;5093321;28;20834;-50
2023/05/23 12:48:05;;;;;;;20.00;17.90;;;24.60;81.10;;;;;;5074523;28;20467;-55
2023/05/23 12:50:32;;;;;;;21.83;17.97;;;24.50;81.10;;;;;;5072585;28;20495;-51